Time;durP1;ratioP1;P1;durP2;ratioP2;P2;SDS_P1;SDS_P2;PMS_P1;PMS_P2;Temp;Humidity;BMP_temperature;BMP_pressure;BME280_temperature;BME280_humidity;BME280_pressure;Samples;Min_cycle;Max_cycle;Signal;HPM_P1;HPM_P2
2022/10/21 00:01:17;;;;;;;30.02;8.82;;;;;;;;;;5093506;28;20022;-71
2022/10/21 00:03:44;;;;;;;36.85;9.88;;;;;;;;;;5092366;28;20054;-71
2022/10/21 00:06:10;;;;;;;33.40;8.00;;;;;;;;;;5093383;28;20481;-71
2022/10/21 00:08:37;;;;;;;30.10;7.03;;;;;;;;;;5093394;28;20485;-72
2022/10/21 00:11:04;;;;;;;28.80;6.85;;;;;;;;;;5093578;28;20027;-71
2022/10/21 00:13:32;;;;;;;33.75;8.25;;;;;;;;;;5093400;28;20052;-71
2022/10/21 00:15:58;;;;;;;26.98;7.28;;;;;;;;;;5093002;28;20024;-71
2022/10/21 00:18:25;;;;;;;35.10;6.97;;;;;;;;;;5093264;28;20400;-72
2022/10/21 00:20:51;;;;;;;28.67;5.97;;;;;;;;;;5093255;28;20042;-71
2022/10/21 00:23:18;;;;;;;29.25;6.65;;;;;;;;;;5093601;28;20028;-71
2022/10/21 00:25:44;;;;;;;25.80;6.18;;;;;;;;;;5093475;28;20016;-71
2022/10/21 00:28:10;;;;;;;30.58;7.30;;;;;;;;;;5092877;28;20031;-71
2022/10/21 00:30:37;;;;;;;32.03;6.72;;;;;;;;;;5093130;28;20032;-71
2022/10/21 00:33:03;;;;;;;31.27;7.18;;;;;;;;;;5093149;28;20077;-71
2022/10/21 00:35:32;;;;;;;27.30;5.85;;;;;;;;;;5093165;28;20020;-71
2022/10/21 00:37:58;;;;;;;31.48;6.60;;;;;;;;;;5091557;28;20044;-71
2022/10/21 00:40:25;;;;;;;27.85;5.93;;;;;;;;;;5092909;28;20016;-71
2022/10/21 00:42:51;;;;;;;34.75;6.78;;;;;;;;;;5091824;28;20386;-71
2022/10/21 00:45:20;;;;;;;28.80;7.28;;;;;;;;;;5092456;28;20045;-71
2022/10/21 00:47:49;;;;;;;25.15;6.63;;;;;;;;;;5093026;28;20024;-71
2022/10/21 00:50:28;;;;;;;27.83;6.63;;;;;;;;;;5092748;28;20037;-71
2022/10/21 00:52:56;;;;;;;20.08;5.90;;;;;;;;;;5092742;28;20025;-71
2022/10/21 00:55:23;;;;;;;15.23;5.75;;;;;;;;;;5092970;28;20032;-71
2022/10/21 00:57:50;;;;;;;25.55;5.93;;;;;;;;;;5091523;28;20035;-71
2022/10/21 01:00:16;;;;;;;27.83;5.60;;;;;;;;;;5092374;28;20026;-71
2022/10/21 01:02:42;;;;;;;25.23;5.72;;;;;;;;;;5092384;28;20034;-72
2022/10/21 01:05:09;;;;;;;23.48;6.35;;;;;;;;;;5092639;28;20679;-71
2022/10/21 01:07:35;;;;;;;16.73;5.28;;;;;;;;;;5092380;28;20472;-71
2022/10/21 01:10:02;;;;;;;21.50;5.28;;;;;;;;;;5092609;28;20026;-72
2022/10/21 01:12:36;;;;;;;22.00;5.43;;;;;;;;;;5092396;28;20507;-71
2022/10/21 01:15:11;;;;;;;25.30;5.38;;;;;;;;;;5092014;28;20477;-71
2022/10/21 01:17:40;;;;;;;20.90;6.45;;;;;;;;;;5092151;28;20377;-71
2022/10/21 01:20:13;;;;;;;31.80;5.82;;;;;;;;;;5092553;28;20026;-71
2022/10/21 01:22:58;;;;;;;29.80;6.75;;;;;;;;;;5092507;28;20020;-71
2022/10/21 01:25:36;;;;;;;28.23;5.90;;;;;;;;;;5092375;28;20461;-71
2022/10/21 01:28:05;;;;;;;18.48;6.00;;;;;;;;;;5092093;28;20046;-71
2022/10/21 01:30:31;;;;;;;32.40;6.75;;;;;;;;;;5092086;28;20020;-71
2022/10/21 01:33:04;;;;;;;27.45;7.13;;;;;;;;;;5092127;28;20028;-72
2022/10/21 01:35:36;;;;;;;28.95;6.43;;;;;;;;;;5092181;28;20020;-71
2022/10/21 01:38:08;;;;;;;28.88;5.63;;;;;;;;;;5091996;28;20034;-71
2022/10/21 01:40:38;;;;;;;27.33;6.28;;;;;;;;;;5092084;28;20016;-71
2022/10/21 01:43:14;;;;;;;26.42;5.90;;;;;;;;;;5091943;28;20032;-71
2022/10/21 01:45:47;;;;;;;28.55;5.63;;;;;;;;;;5091839;28;20020;-71
2022/10/21 01:48:17;;;;;;;24.33;5.60;;;;;;;;;;5092068;28;20031;-71
2022/10/21 01:50:49;;;;;;;27.15;4.80;;;;;;;;;;5092240;28;20028;-71
2022/10/21 01:53:15;;;;;;;24.90;5.45;;;;;;;;;;5092110;28;20081;-71
2022/10/21 01:55:43;;;;;;;20.30;5.55;;;;;;;;;;5091993;28;20354;-70
2022/10/21 01:58:18;;;;;;;15.40;4.35;;;;;;;;;;5091435;28;20028;-70
2022/10/21 02:00:45;;;;;;;25.17;5.47;;;;;;;;;;5092261;28;20073;-70
2022/10/21 02:03:15;;;;;;;29.73;5.47;;;;;;;;;;5092190;28;20031;-70
2022/10/21 02:05:42;;;;;;;27.43;5.83;;;;;;;;;;5091864;28;20477;-70
2022/10/21 02:08:08;;;;;;;24.67;5.35;;;;;;;;;;5092006;28;20274;-70
2022/10/21 02:10:39;;;;;;;15.10;4.43;;;;;;;;;;5092066;28;20022;-70
2022/10/21 02:13:05;;;;;;;;;;;;;;;;;;5091840;28;20046;-70
2022/10/21 02:15:33;;;;;;;21.02;5.35;;;;;;;;;;5091569;28;19912;-70
2022/10/21 02:18:06;;;;;;;25.02;5.68;;;;;;;;;;5091662;28;20040;-70
2022/10/21 02:20:36;;;;;;;29.00;6.28;;;;;;;;;;5092026;28;20024;-70
2022/10/21 02:23:03;;;;;;;30.33;6.05;;;;;;;;;;5091602;28;20499;-70
2022/10/21 02:25:31;;;;;;;18.45;5.53;;;;;;;;;;5091505;28;20033;-70
2022/10/21 02:27:57;;;;;;;24.17;5.32;;;;;;;;;;5091541;28;20017;-70
2022/10/21 02:30:24;;;;;;;23.48;5.05;;;;;;;;;;5095052;28;20030;-70
2022/10/21 02:32:53;;;;;;;26.73;5.47;;;;;;;;;;5095263;28;20030;-70
2022/10/21 02:35:28;;;;;;;16.90;4.38;;;;;;;;;;5095653;28;20026;-71
2022/10/21 02:38:19;;;;;;;20.52;4.82;;;;;;;;;;5095196;28;20036;-70
2022/10/21 02:40:49;;;;;;;17.45;4.15;;;;;;;;;;5094885;28;20017;-71
2022/10/21 02:43:18;;;;;;;14.68;4.32;;;;;;;;;;5095545;28;20031;-70
2022/10/21 02:45:46;;;;;;;20.00;4.78;;;;;;;;;;5074806;28;20031;-70
2022/10/21 02:48:12;;;;;;;22.48;4.10;;;;;;;;;;5074880;28;20025;-70
2022/10/21 02:50:38;;;;;;;15.18;4.13;;;;;;;;;;5074851;28;20462;-70
2022/10/21 02:53:05;;;;;;;18.45;4.55;;;;;;;;;;5074739;28;20488;-69
2022/10/21 02:55:31;;;;;;;21.08;4.82;;;;;;;;;;5074469;28;20196;-70
2022/10/21 02:57:58;;;;;;;17.45;4.53;;;;;;;;;;5074631;28;20047;-69
2022/10/21 03:00:24;;;;;;;19.60;4.78;;;;;;;;;;5075010;28;20093;-70
2022/10/21 03:02:50;;;;;;;23.77;5.60;;;;;;;;;;5074537;28;20028;-70
2022/10/21 03:05:17;;;;;;;17.15;4.78;;;;;;;;;;5074631;28;20054;-70
2022/10/21 03:07:43;;;;;;;22.92;4.82;;;;;;;;;;5074775;28;20082;-71
2022/10/21 03:10:09;;;;;;;18.10;5.03;;;;;;;;;;5074164;28;20386;-70
2022/10/21 03:12:36;;;;;;;22.02;4.47;;;;;;;;;;5089957;28;20025;-70
2022/10/21 03:15:02;;;;;;;24.95;4.90;;;;;;;;;;5074443;28;20025;-70
2022/10/21 03:17:29;;;;;;;26.83;5.40;;;;;;;;;;5074098;28;20043;-70
2022/10/21 03:19:55;;;;;;;25.08;4.75;;;;;;;;;;5074388;28;20027;-70
2022/10/21 03:22:21;;;;;;;21.30;5.20;;;;;;;;;;5074145;28;20028;-70
2022/10/21 03:24:48;;;;;;;27.70;4.85;;;;;;;;;;5073813;28;20428;-70
2022/10/21 03:27:14;;;;;;;23.60;4.88;;;;;;;;;;5079527;28;20026;-70
2022/10/21 03:29:40;;;;;;;24.77;5.05;;;;;;;;;;5094318;28;20035;-70
2022/10/21 03:32:07;;;;;;;22.05;4.88;;;;;;;;;;5094155;28;20024;-70
2022/10/21 03:34:33;;;;;;;23.85;5.35;;;;;;;;;;5094260;28;20032;-70
2022/10/21 03:36:59;;;;;;;24.60;5.28;;;;;;;;;;5094177;28;20028;-70
2022/10/21 03:39:26;;;;;;;31.58;5.85;;;;;;;;;;5093753;28;20073;-70
2022/10/21 03:41:52;;;;;;;22.23;4.50;;;;;;;;;;5093926;28;20034;-70
2022/10/21 03:44:18;;;;;;;26.05;5.60;;;;;;;;;;5092585;28;20046;-70
2022/10/21 03:46:44;;;;;;;19.27;4.43;;;;;;;;;;5093858;28;20396;-69
2022/10/21 03:49:11;;;;;;;22.13;5.20;;;;;;;;;;5094203;28;20043;-70
2022/10/21 03:51:37;;;;;;;23.27;5.22;;;;;;;;;;5093839;28;20032;-70
2022/10/21 03:54:03;;;;;;;20.23;4.72;;;;;;;;;;5093756;28;20027;-70
2022/10/21 03:56:30;;;;;;;27.10;4.82;;;;;;;;;;5093720;28;20032;-70
2022/10/21 03:58:56;;;;;;;16.77;4.65;;;;;;;;;;5093723;28;20525;-68
2022/10/21 04:01:22;;;;;;;17.05;4.60;;;;;;;;;;5093900;28;20024;-70
2022/10/21 04:03:49;;;;;;;18.00;4.45;;;;;;;;;;5093532;28;20028;-69
2022/10/21 04:06:15;;;;;;;19.13;4.72;;;;;;;;;;5094051;28;20020;-70
2022/10/21 04:08:41;;;;;;;18.70;4.65;;;;;;;;;;5093105;28;20396;-70
2022/10/21 04:11:08;;;;;;;19.15;4.95;;;;;;;;;;5093849;28;20031;-70
2022/10/21 04:13:34;;;;;;;20.45;5.03;;;;;;;;;;5093253;28;20046;-70
2022/10/21 04:16:01;;;;;;;24.75;5.10;;;;;;;;;;5092203;28;20034;-69
2022/10/21 04:18:28;;;;;;;24.52;4.80;;;;;;;;;;5093349;28;20034;-70
2022/10/21 04:20:54;;;;;;;14.25;4.30;;;;;;;;;;5093168;28;20024;-68
2022/10/21 04:23:20;;;;;;;20.63;5.22;;;;;;;;;;5092979;28;20028;-68
2022/10/21 04:25:46;;;;;;;20.92;5.32;;;;;;;;;;5093157;28;20032;-69
2022/10/21 04:28:13;;;;;;;28.48;5.30;;;;;;;;;;5093099;28;20032;-69
2022/10/21 04:30:39;;;;;;;15.50;4.97;;;;;;;;;;5093191;28;20389;-71
2022/10/21 04:33:06;;;;;;;24.25;5.53;;;;;;;;;;5093126;28;20104;-70
2022/10/21 04:35:32;;;;;;;21.35;5.32;;;;;;;;;;5092909;28;20016;-70
2022/10/21 04:37:59;;;;;;;17.40;5.22;;;;;;;;;;5092662;28;20032;-70
2022/10/21 04:40:26;;;;;;;24.10;5.00;;;;;;;;;;5093206;28;20028;-70
2022/10/21 04:42:52;;;;;;;23.42;5.45;;;;;;;;;;5092742;28;20038;-70
2022/10/21 04:45:18;;;;;;;25.00;5.45;;;;;;;;;;5092738;28;20032;-70
2022/10/21 04:47:45;;;;;;;21.15;5.07;;;;;;;;;;5093159;28;20024;-70
2022/10/21 04:50:11;;;;;;;21.83;5.45;;;;;;;;;;5092707;28;20383;-70
2022/10/21 04:52:38;;;;;;;30.42;5.65;;;;;;;;;;5091488;28;20046;-71
2022/10/21 04:55:05;;;;;;;21.65;5.18;;;;;;;;;;5092682;28;20035;-70
2022/10/21 04:57:31;;;;;;;19.20;5.30;;;;;;;;;;5092559;28;20036;-70
2022/10/21 04:59:57;;;;;;;23.27;6.05;;;;;;;;;;5092734;28;20024;-71
2022/10/21 05:02:24;;;;;;;20.77;5.10;;;;;;;;;;5093047;28;20525;-70
2022/10/21 05:04:50;;;;;;;18.23;5.50;;;;;;;;;;5092531;28;20020;-70
2022/10/21 05:07:16;;;;;;;22.77;5.60;;;;;;;;;;5092119;28;20042;-70
2022/10/21 05:09:43;;;;;;;18.77;5.35;;;;;;;;;;5092477;28;20028;-70
2022/10/21 05:12:09;;;;;;;22.83;5.60;;;;;;;;;;5092055;28;20034;-71
2022/10/21 05:14:36;;;;;;;19.08;5.55;;;;;;;;;;5112163;28;20116;-70
2022/10/21 05:17:03;;;;;;;34.92;5.95;;;;;;;;;;5112533;28;20066;-70
2022/10/21 05:19:29;;;;;;;27.73;5.82;;;;;;;;;;5112677;28;20472;-70
2022/10/21 05:21:55;;;;;;;24.20;5.38;;;;;;;;;;5112773;28;20092;-70
2022/10/21 05:24:22;;;;;;;20.50;5.30;;;;;;;;;;5112783;28;20020;-70
2022/10/21 05:26:48;;;;;;;20.85;5.43;;;;;;;;;;5110343;28;20015;-70
2022/10/21 05:29:14;;;;;;;26.38;5.70;;;;;;;;;;5092239;28;20024;-70
2022/10/21 05:31:41;;;;;;;25.80;5.28;;;;;;;;;;5092444;28;20031;-70
2022/10/21 05:34:07;;;;;;;22.10;5.82;;;;;;;;;;5092178;28;20473;-70
2022/10/21 05:36:33;;;;;;;20.70;5.75;;;;;;;;;;5091969;28;20034;-70
2022/10/21 05:39:00;;;;;;;26.42;6.13;;;;;;;;;;5092137;28;20034;-70
2022/10/21 05:41:26;;;;;;;22.50;5.20;;;;;;;;;;5091997;28;20430;-70
2022/10/21 05:43:52;;;;;;;21.45;5.35;;;;;;;;;;5091996;28;20019;-70
2022/10/21 05:46:19;;;;;;;26.00;5.70;;;;;;;;;;5090660;28;20024;-70
2022/10/21 05:48:45;;;;;;;20.05;5.40;;;;;;;;;;5091957;28;20081;-70
2022/10/21 05:51:11;;;;;;;25.80;5.88;;;;;;;;;;5091743;28;20473;-70
2022/10/21 05:53:38;;;;;;;24.25;5.97;;;;;;;;;;5092283;28;20024;-70
2022/10/21 05:56:06;;;;;;;22.25;5.55;;;;;;;;;;5091955;28;20034;-70
2022/10/21 05:58:32;;;;;;;22.13;5.57;;;;;;;;;;5090733;28;20034;-70
2022/10/21 06:00:59;;;;;;;19.48;5.10;;;;;;;;;;5091973;28;20020;-70
2022/10/21 06:03:31;;;;;;;20.83;5.50;;;;;;;;;;5092245;28;20091;-70
2022/10/21 06:06:01;;;;;;;30.67;5.60;;;;;;;;;;5095613;28;20022;-70
2022/10/21 06:08:28;;;;;;;26.98;5.50;;;;;;;;;;5096097;28;20038;-70
2022/10/21 06:11:01;;;;;;;22.25;5.45;;;;;;;;;;5095668;28;20396;-70
2022/10/21 06:13:29;;;;;;;21.48;5.07;;;;;;;;;;5085742;28;20395;-68
2022/10/21 06:15:55;;;;;;;28.30;5.65;;;;;;;;;;5090014;28;20438;-68
2022/10/21 06:18:22;;;;;;;24.13;6.28;;;;;;;;;;5090597;28;20055;-68
2022/10/21 06:20:48;;;;;;;23.85;5.78;;;;;;;;;;5095203;28;20013;-69
2022/10/21 06:23:15;;;;;;;25.88;6.60;;;;;;;;;;5095434;28;20085;-68
2022/10/21 06:25:42;;;;;;;25.23;6.13;;;;;;;;;;5094006;28;20416;-69
2022/10/21 06:28:08;;;;;;;21.15;6.20;;;;;;;;;;5086148;28;20469;-68
2022/10/21 06:30:35;;;;;;;29.85;7.05;;;;;;;;;;5103239;28;20046;-69
2022/10/21 06:33:01;;;;;;;21.27;6.28;;;;;;;;;;5091679;28;20024;-69
2022/10/21 06:35:27;;;;;;;22.08;5.85;;;;;;;;;;5089355;28;20047;-69
2022/10/21 06:37:54;;;;;;;23.92;6.20;;;;;;;;;;5092787;28;20036;-69
2022/10/21 06:40:20;;;;;;;21.77;6.78;;;;;;;;;;5085382;28;20024;-69
2022/10/21 06:42:46;;;;;;;23.95;6.32;;;;;;;;;;5093026;28;20026;-69
2022/10/21 06:45:13;;;;;;;22.35;6.43;;;;;;;;;;5094611;28;20081;-69
2022/10/21 06:47:39;;;;;;;23.85;5.95;;;;;;;;;;5092310;28;20054;-70
2022/10/21 06:50:06;;;;;;;22.45;6.57;;;;;;;;;;5095939;28;20032;-69
2022/10/21 06:52:32;;;;;;;25.60;7.10;;;;;;;;;;5094159;28;20050;-69
2022/10/21 06:54:58;;;;;;;22.00;6.82;;;;;;;;;;5093916;28;20069;-69
2022/10/21 06:57:26;;;;;;;28.75;6.63;;;;;;;;;;5094205;28;20032;-69
2022/10/21 06:59:52;;;;;;;21.50;6.05;;;;;;;;;;5067102;28;20032;-69
2022/10/21 07:02:19;;;;;;;20.63;6.75;;;;;;;;;;5079630;28;20036;-69
2022/10/21 07:04:48;;;;;;;26.75;6.80;;;;;;;;;;5092183;28;20016;-69
2022/10/21 07:07:14;;;;;;;21.10;6.28;;;;;;;;;;5093622;28;20027;-69
2022/10/21 07:09:40;;;;;;;31.73;6.93;;;;;;;;;;5090519;28;20028;-69
2022/10/21 07:12:07;;;;;;;24.45;6.47;;;;;;;;;;5090995;28;20026;-69
2022/10/21 07:14:33;;;;;;;16.70;5.88;;;;;;;;;;5090399;28;20055;-69
2022/10/21 07:17:00;;;;;;;22.15;6.55;;;;;;;;;;5089650;28;20026;-69
2022/10/21 07:19:26;;;;;;;21.67;6.00;;;;;;;;;;5092680;28;20101;-69
2022/10/21 07:21:52;;;;;;;23.58;6.57;;;;;;;;;;5092107;28;20028;-69
2022/10/21 07:24:19;;;;;;;17.20;6.03;;;;;;;;;;5108951;28;20027;-69
2022/10/21 07:26:45;;;;;;;23.52;5.70;;;;;;;;;;5107818;28;20065;-69
2022/10/21 07:29:12;;;;;;;18.85;6.18;;;;;;;;;;5091321;28;20043;-69
2022/10/21 07:31:39;;;;;;;24.67;7.15;;;;;;;;;;5089144;28;20490;-69
2022/10/21 07:34:07;;;;;;;22.92;6.55;;;;;;;;;;5092307;28;20396;-70
2022/10/21 07:36:35;;;;;;;22.25;6.38;;;;;;;;;;5080226;28;20044;-69
2022/10/21 07:39:03;;;;;;;23.00;6.75;;;;;;;;;;5085356;28;20068;-71
2022/10/21 07:41:32;;;;;;;20.95;7.13;;;;;;;;;;5082398;28;20491;-70
2022/10/21 07:43:59;;;;;;;27.95;7.00;;;;;;;;;;5092462;28;20016;-70
2022/10/21 07:46:25;;;;;;;19.73;5.60;;;;;;;;;;5093218;28;20028;-70
2022/10/21 07:48:51;;;;;;;36.95;6.80;;;;;;;;;;5092792;28;20089;-70
2022/10/21 07:51:20;;;;;;;29.45;6.32;;;;;;;;;;5085330;28;20026;-69
2022/10/21 07:53:48;;;;;;;28.00;6.00;;;;;;;;;;5082632;28;20458;-69
2022/10/21 07:56:18;;;;;;;25.23;6.28;;;;;;;;;;5092399;28;20101;-70
2022/10/21 07:58:45;;;;;;;20.98;5.63;;;;;;;;;;5083926;28;20100;-70
2022/10/21 08:01:12;;;;;;;28.67;6.43;;;;;;;;;;5088584;28;20046;-71
2022/10/21 08:03:39;;;;;;;31.15;6.55;;;;;;;;;;5092180;28;20016;-70
2022/10/21 08:06:06;;;;;;;19.50;5.80;;;;;;;;;;5092318;28;20027;-70
2022/10/21 08:08:33;;;;;;;20.13;5.05;;;;;;;;;;5092387;28;20032;-70
2022/10/21 08:10:59;;;;;;;23.10;5.22;;;;;;;;;;5090662;28;20032;-71
2022/10/21 08:13:26;;;;;;;19.08;4.68;;;;;;;;;;5092643;28;20046;-71
2022/10/21 08:15:53;;;;;;;21.27;4.35;;;;;;;;;;5092496;28;20027;-69
2022/10/21 08:18:20;;;;;;;23.60;4.65;;;;;;;;;;5091733;28;20024;-69
2022/10/21 08:20:47;;;;;;;15.77;4.70;;;;;;;;;;5091473;28;20546;-69
2022/10/21 08:23:14;;;;;;;18.27;4.78;;;;;;;;;;5073658;28;20023;-69
2022/10/21 08:25:51;;;;;;;16.90;4.35;;;;;;;;;;5071681;28;20024;-69
2022/10/21 08:28:18;;;;;;;23.95;4.53;;;;;;;;;;5086444;28;20020;-68
2022/10/21 08:30:44;;;;;;;19.98;4.20;;;;;;;;;;5092107;28;20032;-69
2022/10/21 08:33:11;;;;;;;18.58;5.05;;;;;;;;;;5092005;28;20046;-69
2022/10/21 08:35:38;;;;;;;17.48;4.30;;;;;;;;;;5091521;28;20028;-69
2022/10/21 08:38:05;;;;;;;14.93;4.50;;;;;;;;;;5091743;28;20390;-69
2022/10/21 08:40:36;;;;;;;23.00;4.68;;;;;;;;;;5091946;28;20370;-69
2022/10/21 08:43:10;;;;;;;17.92;4.68;;;;;;;;;;5092050;28;20031;-69
2022/10/21 08:45:45;;;;;;;17.00;4.53;;;;;;;;;;5091207;28;20376;-69
2022/10/21 08:48:16;;;;;;;18.13;4.82;;;;;;;;;;5092214;28;20022;-69
2022/10/21 08:50:44;;;;;;;19.90;4.30;;;;;;;;;;5091019;28;20030;-69
2022/10/21 08:53:21;;;;;;;21.48;4.65;;;;;;;;;;5092130;28;20032;-69
2022/10/21 08:55:48;;;;;;;21.25;4.55;;;;;;;;;;5091666;28;20034;-70
2022/10/21 08:58:22;;;;;;;17.83;4.65;;;;;;;;;;5091195;28;20042;-70
2022/10/21 09:00:58;;;;;;;22.40;4.80;;;;;;;;;;5091203;28;20020;-70
2022/10/21 09:03:35;;;;;;;17.13;4.25;;;;;;;;;;5090325;28;20032;-70
2022/10/21 09:06:20;;;;;;;17.08;4.30;;;;;;;;;;5086107;28;20388;-70
2022/10/21 09:09:04;;;;;;;17.80;4.55;;;;;;;;;;5091286;28;20024;-71
2022/10/21 09:11:39;;;;;;;17.95;4.35;;;;;;;;;;5090053;28;20404;-71
2022/10/21 09:14:20;;;;;;;18.15;4.32;;;;;;;;;;5090756;28;20475;-71
2022/10/21 09:17:05;;;;;;;16.23;4.10;;;;;;;;;;5090691;28;20034;-71
2022/10/21 09:19:38;;;;;;;18.77;5.35;;;;;;;;;;5091326;28;20025;-71
2022/10/21 09:22:33;;;;;;;16.52;5.10;;;;;;;;;;5077138;28;20036;-71
2022/10/21 09:25:20;;;;;;;16.38;4.97;;;;;;;;;;5071051;28;20512;-71
2022/10/21 09:27:47;;;;;;;17.00;4.47;;;;;;;;;;5076374;28;20031;-71
2022/10/21 09:30:19;;;;;;;24.38;4.60;;;;;;;;;;5090799;28;20388;-71
2022/10/21 09:32:48;;;;;;;17.17;4.50;;;;;;;;;;5091294;28;20026;-71
2022/10/21 09:35:22;;;;;;;18.02;5.10;;;;;;;;;;5090867;28;20020;-71
2022/10/21 09:38:01;;;;;;;17.33;4.97;;;;;;;;;;5091411;28;20043;-71
2022/10/21 09:40:29;;;;;;;16.02;4.15;;;;;;;;;;5092216;28;20028;-71
2022/10/21 09:42:57;;;;;;;15.77;4.10;;;;;;;;;;5091359;28;20035;-71
2022/10/21 09:45:32;;;;;;;15.90;4.15;;;;;;;;;;5106872;28;20032;-71
2022/10/21 09:48:06;;;;;;;24.35;4.10;;;;;;;;;;5089942;28;20020;-71
2022/10/21 09:50:34;;;;;;;18.48;4.28;;;;;;;;;;5091540;28;20030;-71
2022/10/21 09:53:12;;;;;;;13.70;4.10;;;;;;;;;;5091425;28;20501;-71
2022/10/21 09:55:39;;;;;;;19.42;4.45;;;;;;;;;;5091642;28;20200;-71
2022/10/21 09:58:06;;;;;;;20.48;4.15;;;;;;;;;;5090793;28;20032;-71
2022/10/21 10:00:44;;;;;;;18.85;3.95;;;;;;;;;;5091546;28;20024;-71
2022/10/21 10:03:11;;;;;;;20.02;3.45;;;;;;;;;;5091331;28;20028;-71
2022/10/21 10:05:42;;;;;;;16.83;3.97;;;;;;;;;;5088207;28;20024;-71
2022/10/21 10:08:27;;;;;;;19.75;4.22;;;;;;;;;;5091568;28;20425;-71
2022/10/21 10:11:11;;;;;;;13.40;3.42;;;;;;;;;;5090817;28;20016;-71
2022/10/21 10:13:40;;;;;;;15.18;3.80;;;;;;;;;;5091022;28;20066;-71
2022/10/21 10:16:15;;;;;;;18.80;4.10;;;;;;;;;;5091158;28;20020;-71
2022/10/21 10:18:42;;;;;;;14.90;3.80;;;;;;;;;;5091346;28;20044;-71
2022/10/21 10:21:13;;;;;;;15.02;3.90;;;;;;;;;;5091204;28;20362;-71
2022/10/21 10:23:43;;;;;;;14.23;3.33;;;;;;;;;;5091016;28;20031;-71
2022/10/21 10:26:11;;;;;;;17.02;3.90;;;;;;;;;;5090775;28;20490;-70
2022/10/21 10:28:37;;;;;;;17.58;3.75;;;;;;;;;;5091234;28;20034;-70
2022/10/21 10:31:04;;;;;;;17.05;3.42;;;;;;;;;;5091573;28;20036;-71
2022/10/21 10:33:31;;;;;;;14.98;4.00;;;;;;;;;;5091430;28;20027;-71
2022/10/21 10:35:59;;;;;;;18.85;4.40;;;;;;;;;;5091331;28;20020;-70
2022/10/21 10:38:31;;;;;;;11.25;4.10;;;;;;;;;;5090963;28;20496;-68
2022/10/21 10:41:04;;;;;;;16.88;3.70;;;;;;;;;;5090788;28;20032;-70
2022/10/21 10:43:31;;;;;;;16.65;4.10;;;;;;;;;;5089503;28;20022;-70
2022/10/21 10:45:58;;;;;;;20.05;4.20;;;;;;;;;;5090158;28;20012;-70
2022/10/21 10:48:37;;;;;;;19.92;4.07;;;;;;;;;;5091332;28;20028;-70
2022/10/21 10:51:24;;;;;;;20.52;4.50;;;;;;;;;;5092255;28;20080;-70
2022/10/21 10:54:19;;;;;;;20.08;4.00;;;;;;;;;;5094215;28;20028;-70
2022/10/21 10:56:45;;;;;;;15.75;3.72;;;;;;;;;;5094945;28;20042;-70
2022/10/21 10:59:23;;;;;;;16.27;4.10;;;;;;;;;;5094537;28;20028;-70
2022/10/21 11:02:05;;;;;;;16.75;4.20;;;;;;;;;;5094721;28;20027;-70
2022/10/21 11:04:51;;;;;;;14.30;3.78;;;;;;;;;;5094393;28;20032;-70
2022/10/21 11:07:24;;;;;;;17.55;3.88;;;;;;;;;;5094193;28;20031;-70
2022/10/21 11:09:52;;;;;;;20.45;4.45;;;;;;;;;;5093730;28;20311;-70
2022/10/21 11:12:22;;;;;;;19.55;4.18;;;;;;;;;;5094310;28;20493;-68
2022/10/21 11:14:52;;;;;;;16.25;3.78;;;;;;;;;;5093984;28;20038;-69
2022/10/21 11:17:20;;;;;;;15.00;4.22;;;;;;;;;;5093990;28;20028;-70
2022/10/21 11:19:53;;;;;;;18.52;4.18;;;;;;;;;;5094321;28;20028;-70
2022/10/21 11:22:54;;;;;;;15.00;3.80;;;;;;;;;;5093954;28;20031;-70
2022/10/21 11:25:34;;;;;;;20.90;4.35;;;;;;;;;;5086350;28;20024;-70
2022/10/21 11:28:19;;;;;;;20.55;4.05;;;;;;;;;;5091153;28;20046;-70
2022/10/21 11:30:45;;;;;;;12.15;3.50;;;;;;;;;;5091010;28;20066;-70
2022/10/21 11:33:17;;;;;;;19.63;4.03;;;;;;;;;;5091177;28;20477;-71
2022/10/21 11:35:46;;;;;;;13.57;4.35;;;;;;;;;;5091395;28;20024;-69
2022/10/21 11:38:20;;;;;;;18.05;4.45;;;;;;;;;;5086046;28;20046;-70
2022/10/21 11:40:57;;;;;;;17.67;4.03;;;;;;;;;;5090765;28;20044;-70
2022/10/21 11:43:46;;;;;;;17.65;4.68;;;;;;;;;;5073627;28;20036;-70
2022/10/21 11:46:21;;;;;;;19.23;4.25;;;;;;;;;;5029858;28;20399;-70
2022/10/21 11:49:06;;;;;;;17.05;4.25;;;;;;;;;;5030806;28;20044;-70
2022/10/21 11:51:45;;;;;;;22.88;4.60;;;;;;;;;;5013522;28;20048;-70
2022/10/21 11:54:29;;;;;;;20.73;4.60;;;;;;;;;;5030646;28;20026;-70
2022/10/21 11:56:58;;;;;;;20.10;4.55;;;;;;;;;;5050682;28;20533;-70
2022/10/21 11:59:30;;;;;;;17.60;3.95;;;;;;;;;;5036877;28;20045;-69
2022/10/21 12:01:57;;;;;;;28.88;4.10;;;;;;;;;;5047091;28;20021;-70
2022/10/21 12:04:23;;;;;;;17.30;3.92;;;;;;;;;;5046855;28;20051;-70
2022/10/21 12:06:58;;;;;;;22.67;4.22;;;;;;;;;;5049501;28;20042;-70
2022/10/21 12:09:33;;;;;;;20.73;4.20;;;;;;;;;;5050779;28;20032;-69
2022/10/21 12:12:04;;;;;;;19.08;3.92;;;;;;;;;;5051165;28;20085;-70
2022/10/21 12:14:35;;;;;;;27.65;4.60;;;;;;;;;;5050411;28;20059;-69
2022/10/21 12:17:05;;;;;;;22.55;4.32;;;;;;;;;;5034120;28;20040;-70
2022/10/21 12:19:31;;;;;;;24.10;5.27;;;;;;;;;;5049265;28;20035;-69
2022/10/21 12:21:58;;;;;;;17.90;4.57;;;;;;;;;;5050056;28;20031;-70
2022/10/21 12:24:24;;;;;;;20.25;5.07;;;;;;;;;;5092370;28;20044;-70
2022/10/21 12:26:53;;;;;;;23.52;4.28;;;;;;;;;;5092618;28;20391;-70
2022/10/21 12:29:27;;;;;;;21.75;4.57;;;;;;;;;;5093344;28;20035;-70
2022/10/21 12:32:06;;;;;;;20.42;4.68;;;;;;;;;;5090365;28;20031;-70
2022/10/21 12:34:33;;;;;;;14.75;3.80;;;;;;;;;;5092950;28;20016;-70
2022/10/21 12:37:00;;;;;;;13.00;4.25;;;;;;;;;;5092037;28;20024;-70
2022/10/21 12:39:33;;;;;;;20.83;3.95;;;;;;;;;;5092554;28;20396;-70
2022/10/21 12:42:11;;;;;;;21.80;4.10;;;;;;;;;;5092145;28;20020;-70
2022/10/21 12:44:38;;;;;;;17.38;3.75;;;;;;;;;;5091530;28;20039;-70
2022/10/21 12:47:20;;;;;;;19.02;3.85;;;;;;;;;;5093350;28;20023;-70
2022/10/21 12:49:46;;;;;;;17.38;4.05;;;;;;;;;;5090199;28;20031;-70
2022/10/21 12:52:14;;;;;;;19.20;3.75;;;;;;;;;;5081184;28;20026;-71
2022/10/21 12:54:41;;;;;;;13.27;3.83;;;;;;;;;;5087929;28;20028;-70
2022/10/21 12:57:09;;;;;;;17.55;4.10;;;;;;;;;;5092306;28;20084;-70
2022/10/21 12:59:36;;;;;;;18.13;3.53;;;;;;;;;;5085383;28;20042;-71
2022/10/21 13:02:09;;;;;;;17.10;3.50;;;;;;;;;;5087175;28;20023;-71
2022/10/21 13:04:35;;;;;;;23.67;4.13;;;;;;;;;;5092390;28;20024;-71
2022/10/21 13:07:18;;;;;;;20.48;4.38;;;;;;;;;;5091525;28;20077;-71
2022/10/21 13:09:50;;;;;;;21.08;4.25;;;;;;;;;;5080352;28;20030;-70
2022/10/21 13:12:26;;;;;;;20.20;4.07;;;;;;;;;;5091950;28;20426;-71
2022/10/21 13:14:54;;;;;;;26.33;4.15;;;;;;;;;;5090855;28;20048;-71
2022/10/21 13:17:20;;;;;;;20.92;4.97;;;;;;;;;;5091517;28;20030;-70
2022/10/21 13:19:51;;;;;;;19.45;3.58;;;;;;;;;;5093525;28;20502;-70
2022/10/21 13:22:23;;;;;;;24.38;4.18;;;;;;;;;;5109889;28;20022;-70
2022/10/21 13:24:49;;;;;;;22.45;3.80;;;;;;;;;;5091351;28;20030;-70
2022/10/21 13:27:29;;;;;;;17.20;4.57;;;;;;;;;;5090460;28;20012;-71
2022/10/21 13:29:56;;;;;;;19.43;3.70;;;;;;;;;;5071333;28;20020;-70
2022/10/21 13:32:22;;;;;;;19.00;3.85;;;;;;;;;;5083112;28;20020;-70
2022/10/21 13:35:07;;;;;;;20.13;3.65;;;;;;;;;;5091298;28;20028;-70
2022/10/21 13:37:41;;;;;;;19.88;4.03;;;;;;;;;;5101044;28;20036;-71
2022/10/21 13:40:15;;;;;;;22.00;3.95;;;;;;;;;;5112021;28;20042;-70
2022/10/21 13:42:44;;;;;;;19.05;4.30;;;;;;;;;;5112012;28;20511;-70
2022/10/21 13:45:20;;;;;;;21.85;4.03;;;;;;;;;;5094470;28;20036;-71
2022/10/21 13:47:58;;;;;;;14.75;3.97;;;;;;;;;;5091681;28;20016;-70
2022/10/21 13:50:29;;;;;;;16.52;4.13;;;;;;;;;;5090574;28;20493;-70
2022/10/21 13:52:56;;;;;;;16.65;3.83;;;;;;;;;;5091603;28;20020;-71
2022/10/21 13:55:23;;;;;;;18.77;3.95;;;;;;;;;;5092210;28;20028;-70
2022/10/21 13:57:51;;;;;;;19.58;3.88;;;;;;;;;;5091635;28;20489;-70
2022/10/21 14:00:22;;;;;;;23.63;3.80;;;;;;;;;;5088058;28;20028;-70
2022/10/21 14:02:50;;;;;;;15.45;3.67;;;;;;;;;;5091015;28;20032;-71
2022/10/21 14:05:29;;;;;;;19.45;4.63;;;;;;;;;;5091452;28;20026;-71
2022/10/21 14:07:56;;;;;;;23.77;4.03;;;;;;;;;;5091856;28;20021;-70
2022/10/21 14:10:22;;;;;;;24.50;4.45;;;;;;;;;;5091527;28;20054;-71
2022/10/21 14:12:49;;;;;;;17.65;3.72;;;;;;;;;;5091633;28;20113;-70
2022/10/21 14:15:18;;;;;;;18.42;4.15;;;;;;;;;;5091495;28;20027;-70
2022/10/21 14:17:48;;;;;;;18.50;3.70;;;;;;;;;;5091022;28;20020;-70
2022/10/21 14:20:32;;;;;;;15.55;3.67;;;;;;;;;;5091210;28;20054;-70
2022/10/21 14:23:01;;;;;;;17.27;3.53;;;;;;;;;;5091572;28;20016;-70
2022/10/21 14:25:28;;;;;;;17.70;3.58;;;;;;;;;;5093254;28;20024;-70
2022/10/21 14:27:55;;;;;;;17.45;4.45;;;;;;;;;;5098316;28;20068;-70
2022/10/21 14:30:23;;;;;;;22.17;3.75;;;;;;;;;;5116062;28;20026;-70
2022/10/21 14:32:50;;;;;;;17.48;3.80;;;;;;;;;;5114969;28;20030;-70
2022/10/21 14:35:19;;;;;;;16.92;3.53;;;;;;;;;;5115774;28;20027;-71
2022/10/21 14:37:45;;;;;;;16.88;3.58;;;;;;;;;;5115064;28;20032;-68
2022/10/21 14:40:25;;;;;;;14.13;3.55;;;;;;;;;;5115756;28;20020;-70
2022/10/21 14:42:52;;;;;;;16.27;3.58;;;;;;;;;;5115641;28;20020;-70
2022/10/21 14:45:22;;;;;;;12.70;3.60;;;;;;;;;;5090428;28;20027;-70